Webb, Iowa
Current Conditions -  °F | °C
As of 1:53 AM on Wednesday 26 Nov 2014 (Local Time) from KSPW Reporting Station
Light Snow Light Snow  
Wind Chill: -8°   Ceiling: 1000
Heat Index: -2°   Visibility: 4mi
Dew Point: -4°   Wind: 12mph
Humidity: 88%   Direction: 120°ESE
Pressure: 29.85"   Gusts: NA
Location:  42.95°N, 95.01°W
Report Text: KSPW 260753Z AUTO 12010KT 4SM -SN BR BKN010 OVC014 M02/M04 A2985 RMK AO2 CIG 007V013 SLP122 P0000 T10221039 TSNO
Loading
Personal Weather Stations






























Interactive Weather Map New forecast layout! Learn more

10-Day Weather Forecast

Advertisements
Track Severe Weather on mobile